Beasley, Texas
Current Conditions -  °F | °C
As of 6:53 PM on Friday 24 Oct 2014 (Local Time) from KSGR Reporting Station
Clear Clear  
Wind Chill: 68°   Ceiling: Unl
Heat Index: 68°   Visibility: 10mi
Dew Point: 60°   Wind: 0mph
Humidity: 76%   Direction: NA
Pressure: 30.09"   Gusts: NA
Location:  29.5°N, 95.92°W
Report Text: KSGR 242353Z 00000KT 10SM CLR 20/16 A3009 RMK AO2 SLP189 T02000156 10283 20200 53002
Loading
Personal Weather Stations






























Interactive Weather Map
Tropical Storm Tracking
New forecast layout! Learn more

10-Day Weather Forecast

Advertisements
Track Severe Weather on mobile